Morocco, IN

5:15 AM CST on November 23, 2014 (GMT -0600)
KINMOROC2 | Change Station
CLOSE
Current Station
Personal Weather Station
Location: Morocco, IN
Elevation: 685 ft
Nearby Weather Stations

Elev 685 ft 41.02 °N, 87.45 °W | Updated 7 minutes ago

Overcast
Overcast
47.3 °F
Feels Like 43 °F
N
8.0
Wind Variable Wind from South
Gusts 11.0 mph

Today
High -- | Low -- °F
--% Chance of Precip.
Yesterday
High -- | Low -- °F
Precip. -- in
6:46 AM 4:25 PM
New Moon, 1% visible
Pressure 29.83 in
Visibility 10.0 miles
Clouds Scattered Clouds 4800 ft
Overcast 6000 ft
Windchill 43 °F
Dew Point 43 °F
Humidity 85%
Rainfall 0.02 in
Snow Depth Not available.
UV 0 out of 12
Pollen .10 out of 12
Air Quality Not available.
Flu Activity Not available.
METAR KRZL 231055Z AUTO 15007KT 10SM -RA SCT048 OVC060 08/07 A2983 RMK AO2

More Conditions Fewer Conditions

Pressure 29.83 in
Visibility 10.0 miles
Clouds Scattered Clouds 4800 ft
Overcast 6000 ft
Windchill 43 °F
Dew Point 43 °F
Humidity 85%
Rainfall 0.02 in
Snow Depth Not available.
UV 0 out of 12
Pollen .10 out of 12
Air Quality Not available.
Flu Activity Not available.
METAR KRZL 231055Z AUTO 15007KT 10SM -RA SCT048 OVC060 08/07 A2983 RMK AO2

More Conditions Fewer Conditions

10-Day Weather Forecast

Almanac

Astronomy

Nov. 23, 2014 Rise Set
Actual Time
Civil Twilight
Nautical Twilight
Astronomical Twilight
Moon
Length of Visible Light
Length of Day
Tomorrow will be .
, % of the Moon is Illuminated

Today's Extremes

State Highs State Lows

Community

WunderPhotos

Upload Photos

1,773,036 photos uploaded!

WunderBlogs® & News

Nearby

Air Quality

  Air Quality AQ Index Pollutant
Not available.

Snow Depth

Station Depth Elevation

Earthquake Activity

City Distance Mag. Time & Date
Minimum magnitude displayed is 2.5.

Coastal Water Temperatures

Place Temperature

Nearby Weather Stations